createdAt,value
2019-05-25T00:01:45.710Z,15.80
2019-05-25T00:04:16.076Z,15.70
2019-05-25T00:06:46.497Z,15.70
2019-05-25T00:09:17.126Z,15.70
2019-05-25T00:11:49.020Z,15.60
2019-05-25T00:14:19.411Z,15.60
2019-05-25T00:16:49.912Z,15.60
2019-05-25T00:19:20.365Z,15.60
2019-05-25T00:21:51.033Z,15.50
2019-05-25T00:24:21.594Z,15.50
2019-05-25T00:26:52.019Z,15.50
2019-05-25T00:29:22.420Z,15.50
2019-05-25T00:31:52.876Z,15.50
2019-05-25T00:34:23.410Z,15.50
2019-05-25T00:36:53.775Z,15.50
2019-05-25T00:39:24.190Z,15.50
2019-05-25T00:41:55.391Z,15.50
2019-05-25T00:44:25.922Z,15.50
2019-05-25T00:46:56.286Z,15.50
2019-05-25T00:49:26.732Z,15.50
2019-05-25T00:51:57.125Z,15.50
2019-05-25T00:54:28.425Z,15.50
2019-05-25T00:56:58.984Z,15.50
2019-05-25T00:59:30.896Z,15.50
2019-05-25T01:02:01.332Z,15.50
2019-05-25T01:04:31.864Z,15.40
2019-05-25T01:07:02.227Z,15.50
2019-05-25T01:09:32.633Z,15.40
2019-05-25T01:12:03.112Z,15.50
2019-05-25T01:14:34.961Z,15.50
2019-05-25T01:17:05.477Z,15.50
2019-05-25T01:19:37.545Z,15.50
2019-05-25T01:22:09.441Z,15.50
2019-05-25T01:24:44.494Z,15.50
2019-05-25T01:27:11.997Z,15.50
2019-05-25T01:29:42.365Z,15.40
2019-05-25T01:32:12.759Z,15.40
2019-05-25T01:34:43.130Z,15.40
2019-05-25T01:37:13.513Z,15.50
2019-05-25T01:39:44.002Z,15.40
2019-05-25T01:42:14.369Z,15.40
2019-05-25T01:44:46.257Z,15.40
2019-05-25T01:47:16.637Z,15.50
2019-05-25T01:49:47.047Z,15.40
2019-05-25T01:52:17.462Z,15.50
2019-05-25T01:54:59.441Z,15.40
2019-05-25T01:57:20.117Z,15.40
2019-05-25T01:59:50.511Z,15.40
2019-05-25T02:02:20.876Z,15.40
2019-05-25T02:04:51.317Z,15.40
2019-05-25T02:07:21.740Z,15.30
2019-05-25T02:09:52.249Z,15.30
2019-05-25T02:12:22.650Z,15.30
2019-05-25T02:14:54.533Z,15.30
2019-05-25T02:17:24.928Z,15.30
2019-05-25T02:19:56.793Z,15.20
2019-05-25T02:22:29.170Z,15.20
2019-05-25T02:25:16.279Z,15.20
2019-05-25T02:27:33.367Z,15.20
2019-05-25T02:30:08.539Z,15.20
2019-05-25T02:32:39.067Z,15.20
2019-05-25T02:35:11.156Z,15.20
2019-05-25T02:37:41.556Z,15.10
2019-05-25T02:40:12.020Z,15.10
2019-05-25T02:42:42.669Z,15.10
2019-05-25T02:45:13.152Z,15.10
2019-05-25T02:47:43.609Z,15.00
2019-05-25T02:50:15.948Z,15.00
2019-05-25T02:52:46.378Z,15.00
2019-05-25T02:55:32.508Z,15.00
2019-05-25T02:57:49.036Z,15.00
2019-05-25T03:00:22.346Z,14.90
2019-05-25T03:02:52.776Z,15.00
2019-05-25T03:05:23.159Z,14.90
2019-05-25T03:07:54.224Z,14.90
2019-05-25T03:10:26.106Z,14.90
2019-05-25T03:12:56.837Z,14.90
2019-05-25T03:15:27.211Z,14.90
2019-05-25T03:17:57.727Z,14.90
2019-05-25T03:20:29.603Z,14.90
2019-05-25T03:22:59.983Z,14.90
2019-05-25T03:25:30.392Z,14.90
2019-05-25T03:28:00.850Z,14.90
2019-05-25T03:30:33.760Z,14.90
2019-05-25T03:33:04.314Z,15.00
2019-05-25T03:35:34.867Z,15.00
2019-05-25T03:38:05.256Z,15.10
2019-05-25T03:40:35.622Z,15.10
2019-05-25T03:43:06.050Z,15.10
2019-05-25T03:45:36.416Z,15.20
2019-05-25T03:48:06.821Z,15.20
2019-05-25T03:50:38.668Z,15.20
2019-05-25T03:53:09.174Z,15.30
2019-05-25T03:55:39.583Z,15.30
2019-05-25T03:58:11.543Z,15.40
2019-05-25T04:00:43.688Z,15.50
2019-05-25T04:03:15.525Z,15.50
2019-05-25T04:05:45.901Z,15.60
2019-05-25T04:08:16.309Z,15.70
2019-05-25T04:10:46.661Z,15.70
2019-05-25T04:13:18.550Z,15.80
2019-05-25T04:15:48.976Z,15.90
2019-05-25T04:18:19.374Z,15.90
2019-05-25T04:20:49.748Z,16.00
2019-05-25T04:23:20.156Z,16.00
2019-05-25T04:25:50.533Z,16.10
2019-05-25T04:28:20.948Z,16.20
2019-05-25T04:30:52.785Z,16.20
2019-05-25T04:33:23.196Z,16.20
2019-05-25T04:35:53.669Z,16.30
2019-05-25T04:38:24.085Z,16.40
2019-05-25T04:40:54.451Z,16.50
2019-05-25T04:43:24.873Z,16.50
2019-05-25T04:45:55.240Z,16.60
2019-05-25T04:48:25.661Z,16.70
2019-05-25T04:50:56.848Z,16.70
2019-05-25T04:53:27.270Z,16.90
2019-05-25T04:55:57.699Z,16.90
2019-05-25T04:58:29.562Z,17.00
2019-05-25T05:01:00.082Z,17.10
2019-05-25T05:03:30.515Z,17.20
2019-05-25T05:06:02.442Z,17.20
2019-05-25T05:08:35.604Z,17.30
2019-05-25T05:11:05.246Z,17.40
2019-05-25T05:13:35.630Z,17.50
2019-05-25T05:16:06.109Z,17.60
2019-05-25T05:18:36.577Z,17.80
2019-05-25T05:21:08.412Z,17.80
2019-05-25T05:23:38.809Z,18.00
2019-05-25T05:26:10.735Z,18.40
2019-05-25T05:28:41.207Z,18.80
2019-05-25T05:31:23.282Z,19.50
2019-05-25T05:33:45.310Z,20.20
2019-05-25T05:36:17.488Z,21.00
2019-05-25T05:38:48.378Z,21.90
2019-05-25T05:41:20.249Z,23.60
2019-05-25T05:43:52.850Z,25.70
2019-05-25T05:46:26.964Z,27.80
2019-05-25T05:48:59.350Z,29.80
2019-05-25T05:51:33.261Z,31.60
2019-05-25T05:54:05.149Z,33.10
2019-05-25T05:56:35.567Z,34.50
2019-05-25T05:59:07.457Z,35.60
2019-05-25T06:01:37.844Z,36.60
2019-05-25T06:04:08.265Z,37.20
2019-05-25T06:06:38.643Z,37.70
2019-05-25T06:09:09.082Z,38.50
2019-05-25T06:11:39.474Z,39.40
2019-05-25T06:14:09.895Z,40.10
2019-05-25T06:16:40.307Z,40.80
2019-05-25T06:19:10.767Z,41.20
2019-05-25T06:21:43.985Z,41.60
2019-05-25T06:24:14.437Z,41.70
2019-05-25T06:26:46.363Z,42.10
2019-05-25T06:29:16.809Z,42.10
2019-05-25T06:31:47.287Z,42.30
2019-05-25T06:34:17.673Z,42.50
2019-05-25T06:36:50.392Z,42.90
2019-05-25T06:39:20.969Z,43.20
2019-05-25T06:41:51.386Z,43.60
2019-05-25T06:44:21.778Z,43.80
2019-05-25T06:46:52.182Z,44.30
2019-05-25T06:49:22.567Z,44.40
2019-05-25T06:51:52.975Z,44.70
2019-05-25T06:54:23.358Z,45.00
2019-05-25T06:56:53.983Z,45.30
2019-05-25T06:59:24.404Z,45.60
2019-05-25T07:01:54.851Z,45.70
2019-05-25T07:04:25.554Z,46.00
2019-05-25T07:06:56.090Z,46.30
2019-05-25T07:09:27.925Z,46.50
2019-05-25T07:11:58.349Z,46.80
2019-05-25T07:14:28.712Z,46.80
2019-05-25T07:16:59.135Z,47.00
2019-05-25T07:19:29.601Z,47.60
2019-05-25T07:22:01.492Z,47.90
2019-05-25T07:24:31.931Z,47.70
2019-05-25T07:27:03.356Z,47.50
2019-05-25T07:29:35.308Z,47.30
2019-05-25T07:32:07.186Z,47.60
2019-05-25T07:34:37.623Z,48.10
2019-05-25T07:37:07.993Z,48.60
2019-05-25T07:39:38.425Z,49.10
2019-05-25T07:42:08.800Z,49.50
2019-05-25T07:44:39.314Z,49.90
2019-05-25T07:47:11.211Z,50.00
2019-05-25T07:49:41.646Z,50.30
2019-05-25T07:52:13.498Z,50.40
2019-05-25T07:54:43.953Z,51.10
2019-05-25T07:57:14.397Z,51.50
2019-05-25T07:59:44.819Z,52.10
2019-05-25T08:02:15.335Z,52.60
2019-05-25T08:04:45.774Z,53.10
2019-05-25T08:07:16.263Z,53.70
2019-05-25T08:09:46.782Z,53.80
2019-05-25T08:12:17.403Z,54.20
2019-05-25T08:14:47.785Z,54.10
2019-05-25T08:17:18.204Z,54.20
2019-05-25T08:19:48.581Z,53.90
2019-05-25T08:22:19.079Z,54.50
2019-05-25T08:24:50.940Z,54.90
2019-05-25T08:27:21.456Z,55.10
2019-05-25T08:29:51.835Z,54.50
2019-05-25T08:32:23.801Z,52.90
2019-05-25T08:34:54.242Z,53.10
2019-05-25T08:37:24.645Z,53.80
2019-05-25T08:39:55.068Z,53.20
2019-05-25T08:42:25.553Z,52.50
2019-05-25T08:44:56.045Z,53.20
2019-05-25T08:47:26.756Z,53.80
2019-05-25T08:49:57.185Z,54.70
2019-05-25T08:52:27.693Z,55.30
2019-05-25T08:54:58.220Z,55.50
2019-05-25T08:57:28.617Z,55.30
2019-05-25T08:59:59.113Z,55.50
2019-05-25T09:02:29.485Z,55.60
2019-05-25T09:04:59.963Z,55.80
2019-05-25T09:07:30.319Z,55.50
2019-05-25T09:10:00.861Z,55.20
2019-05-25T09:12:31.248Z,54.00
2019-05-25T09:15:01.633Z,53.80
2019-05-25T09:17:32.118Z,52.80
2019-05-25T09:20:02.509Z,51.60
2019-05-25T09:22:32.980Z,51.20
2019-05-25T09:25:04.055Z,50.80
2019-05-25T09:27:34.456Z,51.20
2019-05-25T09:30:08.999Z,50.00
2019-05-25T09:32:39.507Z,47.40
2019-05-25T09:35:11.305Z,44.50
2019-05-25T09:37:43.203Z,43.90
2019-05-25T09:40:13.847Z,41.90
2019-05-25T09:42:45.848Z,40.80
2019-05-25T09:45:16.375Z,40.90
2019-05-25T09:47:46.806Z,41.80
2019-05-25T09:50:17.369Z,41.50
2019-05-25T09:52:47.837Z,41.90
2019-05-25T09:55:18.305Z,41.80
2019-05-25T09:57:48.712Z,39.70
2019-05-25T10:00:19.284Z,37.90
2019-05-25T10:02:49.884Z,36.60
2019-05-25T10:05:20.512Z,35.10
2019-05-25T10:07:50.918Z,34.30
2019-05-25T10:10:22.184Z,33.60
2019-05-25T10:12:52.568Z,33.30
2019-05-25T10:15:22.944Z,32.70
2019-05-25T10:17:53.474Z,32.20
2019-05-25T10:20:25.312Z,31.60
2019-05-25T10:22:55.729Z,31.10
2019-05-25T10:25:27.599Z,30.70
2019-05-25T10:27:57.957Z,30.40
2019-05-25T10:30:28.330Z,30.00
2019-05-25T10:32:58.757Z,29.90
2019-05-25T10:35:29.180Z,30.20
2019-05-25T10:37:59.557Z,30.20
2019-05-25T10:40:29.974Z,30.20
2019-05-25T10:43:00.337Z,30.10
2019-05-25T10:45:30.715Z,30.00
2019-05-25T10:48:01.139Z,29.60
2019-05-25T10:50:31.525Z,29.40
2019-05-25T10:53:02.075Z,29.40
2019-05-25T10:55:32.558Z,29.50
2019-05-25T10:58:03.127Z,29.50
2019-05-25T11:00:33.621Z,29.60
2019-05-25T11:03:04.068Z,29.60
2019-05-25T11:05:34.454Z,29.70
2019-05-25T11:08:04.907Z,29.60
2019-05-25T11:10:35.500Z,29.30
2019-05-25T11:13:05.880Z,29.00
2019-05-25T11:15:36.309Z,29.00
2019-05-25T11:18:06.737Z,29.00
2019-05-25T11:20:38.591Z,28.90
2019-05-25T11:23:09.898Z,28.80
2019-05-25T11:25:40.374Z,28.70
2019-05-25T11:28:10.813Z,28.50
2019-05-25T11:30:41.181Z,28.50
2019-05-25T11:33:11.591Z,28.50
2019-05-25T11:35:42.972Z,28.60
2019-05-25T11:38:13.370Z,28.50
2019-05-25T11:40:43.755Z,28.60
2019-05-25T11:43:14.156Z,28.50
2019-05-25T11:45:45.593Z,28.50
2019-05-25T11:48:16.143Z,28.40
2019-05-25T11:50:46.608Z,28.50
2019-05-25T11:53:17.130Z,28.40
2019-05-25T11:55:47.572Z,28.30
2019-05-25T11:58:19.463Z,28.30
2019-05-25T12:00:51.758Z,28.20
2019-05-25T12:03:22.294Z,27.90
2019-05-25T12:05:54.137Z,27.70
2019-05-25T12:08:24.566Z,27.50
2019-05-25T12:10:54.980Z,27.40
2019-05-25T12:13:25.417Z,27.30
2019-05-25T12:15:55.781Z,27.40
2019-05-25T12:18:26.190Z,27.30
2019-05-25T12:20:56.578Z,27.20
2019-05-25T12:23:28.477Z,27.30
2019-05-25T12:25:58.900Z,27.30
2019-05-25T12:28:29.292Z,27.20
2019-05-25T12:31:00.511Z,27.00
2019-05-25T12:33:30.925Z,26.80
2019-05-25T12:36:01.550Z,26.90
2019-05-25T12:38:33.598Z,27.00
2019-05-25T12:41:03.991Z,27.00
2019-05-25T12:43:34.396Z,27.00
2019-05-25T12:46:04.781Z,26.90
2019-05-25T12:48:35.400Z,26.80
2019-05-25T12:51:05.889Z,26.80
2019-05-25T12:53:36.302Z,26.60
2019-05-25T12:56:06.679Z,26.60
2019-05-25T12:58:37.181Z,26.50
2019-05-25T13:01:07.753Z,26.40
2019-05-25T13:03:38.151Z,26.30
2019-05-25T13:06:08.531Z,26.40
2019-05-25T13:08:38.915Z,26.40
2019-05-25T13:11:11.032Z,26.40
2019-05-25T13:13:42.865Z,26.40
2019-05-25T13:16:13.407Z,26.30
2019-05-25T13:18:43.819Z,26.10
2019-05-25T13:21:15.780Z,26.10
2019-05-25T13:23:46.163Z,26.10
2019-05-25T13:26:18.071Z,26.10
2019-05-25T13:28:48.487Z,26.20
2019-05-25T13:31:18.893Z,26.20
2019-05-25T13:33:49.267Z,26.10
2019-05-25T13:36:19.725Z,26.10
2019-05-25T13:38:50.161Z,26.00
2019-05-25T13:41:20.584Z,26.00
2019-05-25T13:43:50.997Z,26.10
2019-05-25T13:46:21.409Z,26.20
2019-05-25T13:48:51.802Z,26.20
2019-05-25T13:51:22.259Z,26.40
2019-05-25T13:53:52.637Z,26.40
2019-05-25T13:56:23.049Z,26.50
2019-05-25T13:58:53.457Z,26.60
2019-05-25T14:01:28.266Z,26.50
2019-05-25T14:03:55.999Z,26.50
2019-05-25T14:06:27.904Z,26.60
2019-05-25T14:08:58.269Z,26.60
2019-05-25T14:11:28.660Z,26.60
2019-05-25T14:13:59.070Z,26.50
2019-05-25T14:16:29.449Z,26.40
2019-05-25T14:18:59.897Z,26.50
2019-05-25T14:21:30.269Z,26.50
2019-05-25T14:24:00.740Z,26.50
2019-05-25T14:26:31.231Z,26.50
2019-05-25T14:29:01.644Z,26.60
2019-05-25T14:31:45.069Z,26.60
2019-05-25T14:34:07.936Z,26.70
2019-05-25T14:36:38.308Z,26.80
2019-05-25T14:39:09.094Z,26.90
2019-05-25T14:41:39.531Z,26.90
2019-05-25T14:44:09.897Z,27.00
2019-05-25T14:46:41.821Z,27.10
2019-05-25T14:49:12.253Z,27.00
2019-05-25T14:51:44.149Z,27.10
2019-05-25T14:54:14.529Z,27.10
2019-05-25T14:56:44.955Z,26.90
2019-05-25T14:59:15.397Z,26.90
2019-05-25T15:02:01.441Z,26.90
2019-05-25T15:04:18.021Z,26.70
2019-05-25T15:06:48.393Z,26.70
2019-05-25T15:09:19.112Z,26.60
2019-05-25T15:11:53.638Z,26.50
2019-05-25T15:14:21.904Z,26.30
2019-05-25T15:16:52.293Z,26.30
2019-05-25T15:19:22.778Z,26.30
2019-05-25T15:21:53.250Z,26.20
2019-05-25T15:24:23.621Z,26.20
2019-05-25T15:26:54.145Z,26.20
2019-05-25T15:29:24.515Z,26.00
2019-05-25T15:31:55.080Z,25.90
2019-05-25T15:34:27.289Z,25.90
2019-05-25T15:36:57.754Z,25.80
2019-05-25T15:39:28.116Z,25.70
2019-05-25T15:41:59.355Z,25.70
2019-05-25T15:44:30.038Z,25.70
2019-05-25T15:47:00.403Z,25.60
2019-05-25T15:49:33.648Z,25.50
2019-05-25T15:52:04.518Z,25.50
2019-05-25T15:54:34.899Z,25.50
2019-05-25T15:57:05.413Z,25.40
2019-05-25T15:59:35.900Z,25.40
2019-05-25T16:02:06.572Z,25.30
2019-05-25T16:04:37.058Z,25.30
2019-05-25T16:07:10.499Z,25.30
2019-05-25T16:09:40.905Z,25.30
2019-05-25T16:12:11.315Z,25.30
2019-05-25T16:14:41.679Z,25.30
2019-05-25T16:17:12.088Z,25.30
2019-05-25T16:19:42.460Z,25.30
2019-05-25T16:22:12.870Z,25.30
2019-05-25T16:24:43.246Z,25.30
2019-05-25T16:27:13.676Z,25.20
2019-05-25T16:29:44.998Z,25.20
2019-05-25T16:32:15.435Z,25.20
2019-05-25T16:34:45.845Z,25.20
2019-05-25T16:37:16.465Z,25.10
2019-05-25T16:39:47.020Z,25.10
2019-05-25T16:42:17.556Z,25.00
2019-05-25T16:44:50.273Z,25.00
2019-05-25T16:47:20.708Z,25.00
2019-05-25T16:49:52.584Z,25.00
2019-05-25T16:52:24.430Z,24.90
2019-05-25T16:54:54.953Z,25.00
2019-05-25T16:57:27.143Z,25.00
2019-05-25T16:59:59.025Z,25.00
2019-05-25T17:02:31.444Z,24.90
2019-05-25T17:05:01.852Z,24.90
2019-05-25T17:07:32.245Z,24.80
2019-05-25T17:10:02.685Z,24.80
2019-05-25T17:12:33.190Z,24.80
2019-05-25T17:15:05.040Z,24.80
2019-05-25T17:17:35.551Z,24.70
2019-05-25T17:20:08.781Z,24.60
2019-05-25T17:22:40.793Z,24.60
2019-05-25T17:25:11.291Z,24.50
2019-05-25T17:27:41.749Z,24.50
2019-05-25T17:30:12.602Z,24.40
2019-05-25T17:32:43.023Z,24.30
2019-05-25T17:35:14.981Z,24.20
2019-05-25T17:37:45.380Z,24.20
2019-05-25T17:40:15.752Z,24.20
2019-05-25T17:42:46.176Z,24.10
2019-05-25T17:45:16.659Z,24.10
2019-05-25T17:47:48.581Z,24.00
2019-05-25T17:50:18.964Z,23.90
2019-05-25T17:52:49.368Z,23.80
2019-05-25T17:55:19.741Z,23.70
2019-05-25T17:57:50.189Z,23.70
2019-05-25T18:00:23.497Z,23.60
2019-05-25T18:02:55.764Z,23.50
2019-05-25T18:05:27.725Z,23.50
2019-05-25T18:07:59.915Z,23.40
2019-05-25T18:10:30.297Z,23.20
2019-05-25T18:13:02.197Z,23.20
2019-05-25T18:15:32.578Z,23.10
2019-05-25T18:18:05.342Z,23.00
2019-05-25T18:20:35.713Z,22.90
2019-05-25T18:23:06.107Z,22.90
2019-05-25T18:25:37.946Z,22.80
2019-05-25T18:28:08.429Z,22.70
2019-05-25T18:30:38.880Z,22.60
2019-05-25T18:33:09.345Z,22.40
2019-05-25T18:35:39.793Z,22.40
2019-05-25T18:38:10.218Z,22.20
2019-05-25T18:40:42.088Z,22.10
2019-05-25T18:43:12.570Z,22.00
2019-05-25T18:45:44.493Z,22.00
2019-05-25T18:48:14.931Z,21.90
2019-05-25T18:50:45.435Z,21.80
2019-05-25T18:53:15.804Z,21.80
2019-05-25T18:55:46.207Z,21.70
2019-05-25T18:58:16.665Z,21.70
2019-05-25T19:00:48.543Z,21.60
2019-05-25T19:03:18.945Z,21.50
2019-05-25T19:05:49.388Z,21.50
2019-05-25T19:08:20.595Z,21.40
2019-05-25T19:10:50.971Z,21.40
2019-05-25T19:13:24.381Z,21.40
2019-05-25T19:15:54.752Z,21.30
2019-05-25T19:18:25.183Z,21.20
2019-05-25T19:20:55.543Z,21.20
2019-05-25T19:23:25.963Z,21.20
2019-05-25T19:25:56.341Z,21.10
2019-05-25T19:28:26.744Z,21.10
2019-05-25T19:30:57.145Z,21.00
2019-05-25T19:33:27.507Z,21.00
2019-05-25T19:35:57.957Z,20.90
2019-05-25T19:38:28.346Z,20.80
2019-05-25T19:40:58.760Z,20.80
2019-05-25T19:43:29.124Z,20.70
2019-05-25T19:45:59.540Z,20.70
2019-05-25T19:48:29.955Z,20.60
2019-05-25T19:51:00.365Z,20.60
2019-05-25T19:53:30.743Z,20.60
2019-05-25T19:56:01.157Z,20.50
2019-05-25T19:58:31.538Z,20.50
2019-05-25T20:01:02.023Z,20.50
2019-05-25T20:03:32.399Z,20.40
2019-05-25T20:06:02.970Z,20.40
2019-05-25T20:08:33.349Z,20.30
2019-05-25T20:11:03.820Z,20.20
2019-05-25T20:13:34.206Z,20.20
2019-05-25T20:16:06.090Z,20.10
2019-05-25T20:18:36.598Z,20.10
2019-05-25T20:21:08.576Z,20.00
2019-05-25T20:23:38.956Z,20.00
2019-05-25T20:26:09.436Z,20.00
2019-05-25T20:28:39.883Z,19.90
2019-05-25T20:31:10.297Z,19.90
2019-05-25T20:33:40.705Z,19.90
2019-05-25T20:36:11.260Z,19.90
2019-05-25T20:38:41.754Z,19.90
2019-05-25T20:41:12.253Z,19.90
2019-05-25T20:43:42.699Z,19.80
2019-05-25T20:46:13.122Z,19.80
2019-05-25T20:48:43.577Z,19.80
2019-05-25T20:51:14.056Z,19.80
2019-05-25T20:53:44.434Z,19.80
2019-05-25T20:56:14.837Z,19.80
2019-05-25T20:58:45.314Z,19.70
2019-05-25T21:01:17.198Z,19.60
2019-05-25T21:03:47.632Z,19.60
2019-05-25T21:06:18.129Z,19.50
2019-05-25T21:08:49.959Z,19.40
2019-05-25T21:11:20.367Z,19.40
2019-05-25T21:13:50.775Z,19.30
2019-05-25T21:16:21.194Z,19.30
2019-05-25T21:18:51.746Z,19.30
2019-05-25T21:21:22.168Z,19.20
2019-05-25T21:23:54.144Z,19.20
2019-05-25T21:26:24.561Z,19.20
2019-05-25T21:28:55.061Z,19.10
2019-05-25T21:31:25.531Z,19.10
2019-05-25T21:33:55.953Z,19.00
2019-05-25T21:36:26.341Z,19.10
2019-05-25T21:38:58.213Z,19.00
2019-05-25T21:41:28.586Z,19.00
2019-05-25T21:44:00.489Z,18.90
2019-05-25T21:46:32.355Z,19.00
2019-05-25T21:49:02.789Z,18.80
2019-05-25T21:51:33.282Z,18.80
2019-05-25T21:54:03.779Z,18.80
2019-05-25T21:56:34.201Z,18.80
2019-05-25T21:59:04.735Z,18.80
2019-05-25T22:01:35.132Z,18.70
2019-05-25T22:04:05.510Z,18.80
2019-05-25T22:06:35.944Z,18.90
2019-05-25T22:09:07.527Z,18.80
2019-05-25T22:11:37.930Z,18.80
2019-05-25T22:14:08.592Z,18.70
2019-05-25T22:16:39.030Z,18.80
2019-05-25T22:19:09.468Z,18.60
2019-05-25T22:21:40.749Z,18.70
2019-05-25T22:24:11.126Z,18.70
2019-05-25T22:26:41.645Z,18.70
2019-05-25T22:29:13.719Z,18.60
2019-05-25T22:31:44.144Z,18.70
2019-05-25T22:34:14.630Z,18.70
2019-05-25T22:36:45.060Z,18.80
2019-05-25T22:39:18.175Z,19.10
2019-05-25T22:41:48.578Z,19.20
2019-05-25T22:44:18.950Z,19.20
2019-05-25T22:46:49.353Z,19.20
2019-05-25T22:49:19.736Z,19.30
2019-05-25T22:51:50.977Z,19.40
2019-05-25T22:54:21.361Z,19.30
2019-05-25T22:56:53.320Z,19.40
2019-05-25T22:59:23.692Z,19.50
2019-05-25T23:01:54.118Z,19.50
2019-05-25T23:04:24.495Z,19.40
2019-05-25T23:06:58.260Z,19.50
2019-05-25T23:09:28.440Z,19.60
2019-05-25T23:11:58.848Z,19.50
2019-05-25T23:14:29.205Z,19.50
2019-05-25T23:17:01.318Z,19.60
2019-05-25T23:19:33.365Z,19.60
2019-05-25T23:22:03.792Z,19.50
2019-05-25T23:24:34.238Z,19.50
2019-05-25T23:27:05.384Z,19.50
2019-05-25T23:29:35.825Z,19.50
2019-05-25T23:32:06.282Z,19.50
2019-05-25T23:34:36.718Z,19.50
2019-05-25T23:37:14.745Z,19.50
2019-05-25T23:39:39.219Z,19.50
2019-05-25T23:42:09.653Z,19.50
2019-05-25T23:44:40.090Z,19.40
2019-05-25T23:47:10.501Z,19.50
2019-05-25T23:49:42.348Z,19.50
2019-05-25T23:52:12.729Z,19.50
2019-05-25T23:54:43.172Z,19.50
2019-05-25T23:57:13.551Z,19.50
2019-05-25T23:59:44.843Z,19.50
